sensor_id;sensor_type;location;lat;lon;timestamp;P1;durP1;ratioP1;P2;durP2;ratioP2
50872;SDS011;72604;40.088;18.346;2024-02-26T00:02:29;11.30;;;5.80;;
50872;SDS011;72604;40.088;18.346;2024-02-26T00:06:11;16.35;;;6.70;;
50872;SDS011;72604;40.088;18.346;2024-02-26T00:09:53;14.43;;;4.10;;
50872;SDS011;72604;40.088;18.346;2024-02-26T00:13:35;14.90;;;6.93;;
50872;SDS011;72604;40.088;18.346;2024-02-26T00:17:16;13.82;;;5.57;;
50872;SDS011;72604;40.088;18.346;2024-02-26T00:20:57;11.05;;;3.88;;
50872;SDS011;72604;40.088;18.346;2024-02-26T00:24:39;11.13;;;3.17;;
50872;SDS011;72604;40.088;18.346;2024-02-26T00:28:22;14.23;;;4.13;;
50872;SDS011;72604;40.088;18.346;2024-02-26T00:32:05;13.30;;;4.53;;
50872;SDS011;72604;40.088;18.346;2024-02-26T00:35:46;11.38;;;3.30;;
50872;SDS011;72604;40.088;18.346;2024-02-26T00:39:26;12.27;;;2.80;;
50872;SDS011;72604;40.088;18.346;2024-02-26T00:43:07;11.63;;;3.22;;
50872;SDS011;72604;40.088;18.346;2024-02-26T00:46:50;12.35;;;3.60;;
50872;SDS011;72604;40.088;18.346;2024-02-26T00:50:30;12.90;;;3.78;;
50872;SDS011;72604;40.088;18.346;2024-02-26T00:54:11;17.67;;;4.13;;
50872;SDS011;72604;40.088;18.346;2024-02-26T00:57:53;9.15;;;4.03;;
50872;SDS011;72604;40.088;18.346;2024-02-26T01:01:34;15.52;;;5.15;;
50872;SDS011;72604;40.088;18.346;2024-02-26T01:05:16;14.80;;;5.65;;
50872;SDS011;72604;40.088;18.346;2024-02-26T01:09:00;13.27;;;6.45;;
50872;SDS011;72604;40.088;18.346;2024-02-26T01:12:41;12.63;;;6.00;;
50872;SDS011;72604;40.088;18.346;2024-02-26T01:16:22;13.73;;;6.28;;
50872;SDS011;72604;40.088;18.346;2024-02-26T01:20:04;15.57;;;6.03;;
50872;SDS011;72604;40.088;18.346;2024-02-26T01:23:46;14.05;;;6.07;;
50872;SDS011;72604;40.088;18.346;2024-02-26T01:27:27;13.45;;;6.10;;
50872;SDS011;72604;40.088;18.346;2024-02-26T01:31:09;14.82;;;6.03;;
50872;SDS011;72604;40.088;18.346;2024-02-26T01:34:50;22.10;;;6.35;;
50872;SDS011;72604;40.088;18.346;2024-02-26T01:38:31;15.65;;;6.30;;
50872;SDS011;72604;40.088;18.346;2024-02-26T01:42:13;15.50;;;6.35;;
50872;SDS011;72604;40.088;18.346;2024-02-26T01:45:54;18.80;;;7.30;;
50872;SDS011;72604;40.088;18.346;2024-02-26T01:49:35;14.65;;;7.15;;
50872;SDS011;72604;40.088;18.346;2024-02-26T01:53:17;14.90;;;6.88;;
50872;SDS011;72604;40.088;18.346;2024-02-26T01:56:58;21.33;;;7.40;;
50872;SDS011;72604;40.088;18.346;2024-02-26T02:00:40;14.68;;;7.05;;
50872;SDS011;72604;40.088;18.346;2024-02-26T02:04:22;17.25;;;7.40;;
50872;SDS011;72604;40.088;18.346;2024-02-26T02:08:04;15.80;;;6.72;;
50872;SDS011;72604;40.088;18.346;2024-02-26T02:11:45;15.00;;;7.18;;
50872;SDS011;72604;40.088;18.346;2024-02-26T02:15:28;16.45;;;7.45;;
50872;SDS011;72604;40.088;18.346;2024-02-26T02:19:10;20.13;;;8.55;;
50872;SDS011;72604;40.088;18.346;2024-02-26T02:22:53;14.38;;;7.50;;
50872;SDS011;72604;40.088;18.346;2024-02-26T02:26:34;17.25;;;8.20;;
50872;SDS011;72604;40.088;18.346;2024-02-26T02:30:15;18.52;;;9.68;;
50872;SDS011;72604;40.088;18.346;2024-02-26T02:33:56;20.27;;;8.68;;
50872;SDS011;72604;40.088;18.346;2024-02-26T02:37:37;14.88;;;8.02;;
50872;SDS011;72604;40.088;18.346;2024-02-26T02:41:20;19.42;;;8.57;;
50872;SDS011;72604;40.088;18.346;2024-02-26T02:45:01;16.38;;;8.65;;
50872;SDS011;72604;40.088;18.346;2024-02-26T02:48:41;18.88;;;8.35;;
50872;SDS011;72604;40.088;18.346;2024-02-26T02:52:23;14.48;;;7.30;;
50872;SDS011;72604;40.088;18.346;2024-02-26T02:56:04;17.13;;;7.85;;
50872;SDS011;72604;40.088;18.346;2024-02-26T02:59:46;15.35;;;8.32;;
50872;SDS011;72604;40.088;18.346;2024-02-26T03:03:27;16.65;;;7.88;;
50872;SDS011;72604;40.088;18.346;2024-02-26T03:07:08;13.60;;;7.97;;
50872;SDS011;72604;40.088;18.346;2024-02-26T03:10:49;15.27;;;7.95;;
50872;SDS011;72604;40.088;18.346;2024-02-26T03:14:30;15.57;;;8.57;;
50872;SDS011;72604;40.088;18.346;2024-02-26T03:18:12;14.23;;;8.88;;
50872;SDS011;72604;40.088;18.346;2024-02-26T03:21:54;22.20;;;9.43;;
50872;SDS011;72604;40.088;18.346;2024-02-26T03:25:35;18.83;;;9.63;;
50872;SDS011;72604;40.088;18.346;2024-02-26T03:29:16;16.70;;;9.52;;
50872;SDS011;72604;40.088;18.346;2024-02-26T03:32:56;18.35;;;9.27;;
50872;SDS011;72604;40.088;18.346;2024-02-26T03:36:39;21.02;;;10.05;;
50872;SDS011;72604;40.088;18.346;2024-02-26T03:40:20;17.00;;;9.55;;
50872;SDS011;72604;40.088;18.346;2024-02-26T03:44:01;22.13;;;10.20;;
50872;SDS011;72604;40.088;18.346;2024-02-26T03:47:44;22.27;;;9.30;;
50872;SDS011;72604;40.088;18.346;2024-02-26T03:51:25;18.10;;;8.88;;
50872;SDS011;72604;40.088;18.346;2024-02-26T03:55:12;21.45;;;9.45;;
50872;SDS011;72604;40.088;18.346;2024-02-26T03:58:53;20.08;;;9.25;;
50872;SDS011;72604;40.088;18.346;2024-02-26T04:02:33;18.73;;;8.52;;
50872;SDS011;72604;40.088;18.346;2024-02-26T04:06:14;23.83;;;9.02;;
50872;SDS011;72604;40.088;18.346;2024-02-26T04:09:57;20.10;;;8.40;;
50872;SDS011;72604;40.088;18.346;2024-02-26T04:13:41;21.80;;;9.02;;
50872;SDS011;72604;40.088;18.346;2024-02-26T04:17:25;19.30;;;8.10;;
50872;SDS011;72604;40.088;18.346;2024-02-26T04:21:06;17.48;;;6.90;;
50872;SDS011;72604;40.088;18.346;2024-02-26T04:24:47;21.48;;;8.02;;
50872;SDS011;72604;40.088;18.346;2024-02-26T04:28:28;21.70;;;7.65;;
50872;SDS011;72604;40.088;18.346;2024-02-26T04:32:10;17.05;;;7.13;;
50872;SDS011;72604;40.088;18.346;2024-02-26T04:35:51;17.75;;;7.22;;
50872;SDS011;72604;40.088;18.346;2024-02-26T04:39:32;20.30;;;7.78;;
50872;SDS011;72604;40.088;18.346;2024-02-26T04:43:13;15.55;;;7.05;;
50872;SDS011;72604;40.088;18.346;2024-02-26T04:46:54;12.45;;;6.22;;
50872;SDS011;72604;40.088;18.346;2024-02-26T04:50:36;16.98;;;7.03;;
50872;SDS011;72604;40.088;18.346;2024-02-26T04:54:17;15.95;;;7.70;;
50872;SDS011;72604;40.088;18.346;2024-02-26T04:57:58;16.75;;;6.55;;
50872;SDS011;72604;40.088;18.346;2024-02-26T05:01:39;15.60;;;6.15;;
50872;SDS011;72604;40.088;18.346;2024-02-26T05:05:21;16.98;;;7.13;;
50872;SDS011;72604;40.088;18.346;2024-02-26T05:09:03;18.08;;;7.07;;
50872;SDS011;72604;40.088;18.346;2024-02-26T05:12:43;15.48;;;7.00;;
50872;SDS011;72604;40.088;18.346;2024-02-26T05:16:24;14.88;;;6.47;;
50872;SDS011;72604;40.088;18.346;2024-02-26T05:20:07;17.48;;;6.72;;
50872;SDS011;72604;40.088;18.346;2024-02-26T05:23:48;18.08;;;7.32;;
50872;SDS011;72604;40.088;18.346;2024-02-26T05:27:30;12.07;;;7.00;;
50872;SDS011;72604;40.088;18.346;2024-02-26T05:31:12;20.60;;;7.40;;
50872;SDS011;72604;40.088;18.346;2024-02-26T05:34:53;14.75;;;6.25;;
50872;SDS011;72604;40.088;18.346;2024-02-26T05:38:34;15.63;;;6.78;;
50872;SDS011;72604;40.088;18.346;2024-02-26T05:42:15;15.65;;;6.55;;
50872;SDS011;72604;40.088;18.346;2024-02-26T05:45:57;14.93;;;6.60;;
50872;SDS011;72604;40.088;18.346;2024-02-26T05:49:39;15.10;;;6.57;;
50872;SDS011;72604;40.088;18.346;2024-02-26T05:53:19;10.95;;;5.57;;
50872;SDS011;72604;40.088;18.346;2024-02-26T05:57:00;14.40;;;6.53;;
50872;SDS011;72604;40.088;18.346;2024-02-26T06:00:40;19.70;;;6.03;;
50872;SDS011;72604;40.088;18.346;2024-02-26T06:04:23;14.98;;;6.38;;
50872;SDS011;72604;40.088;18.346;2024-02-26T06:08:04;13.77;;;5.82;;
50872;SDS011;72604;40.088;18.346;2024-02-26T06:11:46;13.25;;;5.90;;
50872;SDS011;72604;40.088;18.346;2024-02-26T06:15:27;16.10;;;6.53;;
50872;SDS011;72604;40.088;18.346;2024-02-26T06:19:07;15.13;;;6.28;;
50872;SDS011;72604;40.088;18.346;2024-02-26T06:22:51;14.23;;;5.82;;
50872;SDS011;72604;40.088;18.346;2024-02-26T06:26:31;14.10;;;6.53;;
50872;SDS011;72604;40.088;18.346;2024-02-26T06:30:13;14.98;;;5.40;;
50872;SDS011;72604;40.088;18.346;2024-02-26T06:33:54;10.10;;;5.60;;
50872;SDS011;72604;40.088;18.346;2024-02-26T06:37:36;11.55;;;5.72;;
50872;SDS011;72604;40.088;18.346;2024-02-26T06:41:19;9.60;;;5.13;;
50872;SDS011;72604;40.088;18.346;2024-02-26T06:45:00;11.05;;;4.35;;
50872;SDS011;72604;40.088;18.346;2024-02-26T06:48:42;12.25;;;4.22;;
50872;SDS011;72604;40.088;18.346;2024-02-26T06:52:22;9.88;;;4.45;;
50872;SDS011;72604;40.088;18.346;2024-02-26T06:56:04;6.72;;;3.47;;
50872;SDS011;72604;40.088;18.346;2024-02-26T06:59:47;9.32;;;4.43;;
50872;SDS011;72604;40.088;18.346;2024-02-26T07:03:28;6.72;;;3.10;;
50872;SDS011;72604;40.088;18.346;2024-02-26T07:07:10;6.88;;;3.38;;
50872;SDS011;72604;40.088;18.346;2024-02-26T07:10:51;7.10;;;3.47;;
50872;SDS011;72604;40.088;18.346;2024-02-26T07:14:32;6.30;;;3.22;;
50872;SDS011;72604;40.088;18.346;2024-02-26T07:18:14;7.82;;;3.38;;
50872;SDS011;72604;40.088;18.346;2024-02-26T07:21:55;7.40;;;3.20;;
50872;SDS011;72604;40.088;18.346;2024-02-26T07:25:36;9.95;;;3.38;;
50872;SDS011;72604;40.088;18.346;2024-02-26T07:29:17;7.95;;;3.75;;
50872;SDS011;72604;40.088;18.346;2024-02-26T07:32:58;10.68;;;3.90;;
50872;SDS011;72604;40.088;18.346;2024-02-26T07:36:41;7.90;;;3.25;;
50872;SDS011;72604;40.088;18.346;2024-02-26T07:40:21;7.75;;;3.72;;
50872;SDS011;72604;40.088;18.346;2024-02-26T07:44:03;7.88;;;3.45;;
50872;SDS011;72604;40.088;18.346;2024-02-26T07:47:44;7.85;;;3.00;;
50872;SDS011;72604;40.088;18.346;2024-02-26T07:51:25;7.53;;;3.05;;
50872;SDS011;72604;40.088;18.346;2024-02-26T07:55:08;7.75;;;3.40;;
50872;SDS011;72604;40.088;18.346;2024-02-26T07:58:49;5.57;;;3.22;;
50872;SDS011;72604;40.088;18.346;2024-02-26T08:02:30;5.55;;;2.50;;
50872;SDS011;72604;40.088;18.346;2024-02-26T08:06:11;7.00;;;3.10;;
50872;SDS011;72604;40.088;18.346;2024-02-26T08:09:52;8.45;;;2.85;;
50872;SDS011;72604;40.088;18.346;2024-02-26T08:13:34;7.50;;;3.22;;
50872;SDS011;72604;40.088;18.346;2024-02-26T08:17:15;6.43;;;2.95;;
50872;SDS011;72604;40.088;18.346;2024-02-26T08:20:56;6.75;;;2.40;;
50872;SDS011;72604;40.088;18.346;2024-02-26T08:24:37;6.82;;;2.90;;
50872;SDS011;72604;40.088;18.346;2024-02-26T08:28:18;5.45;;;2.75;;
50872;SDS011;72604;40.088;18.346;2024-02-26T08:32:00;8.57;;;3.05;;
50872;SDS011;72604;40.088;18.346;2024-02-26T08:35:41;7.43;;;3.05;;
50872;SDS011;72604;40.088;18.346;2024-02-26T08:39:22;7.05;;;2.70;;
50872;SDS011;72604;40.088;18.346;2024-02-26T08:43:03;6.57;;;2.90;;
50872;SDS011;72604;40.088;18.346;2024-02-26T08:46:44;6.72;;;2.72;;
50872;SDS011;72604;40.088;18.346;2024-02-26T08:50:27;6.15;;;2.65;;
50872;SDS011;72604;40.088;18.346;2024-02-26T08:54:08;5.35;;;2.50;;
50872;SDS011;72604;40.088;18.346;2024-02-26T08:57:49;7.28;;;2.95;;
50872;SDS011;72604;40.088;18.346;2024-02-26T09:01:30;10.65;;;2.78;;
50872;SDS011;72604;40.088;18.346;2024-02-26T09:05:12;4.72;;;2.55;;
50872;SDS011;72604;40.088;18.346;2024-02-26T09:08:54;4.85;;;2.75;;
50872;SDS011;72604;40.088;18.346;2024-02-26T09:12:36;4.82;;;2.53;;
50872;SDS011;72604;40.088;18.346;2024-02-26T09:16:19;7.40;;;2.92;;
50872;SDS011;72604;40.088;18.346;2024-02-26T09:20:00;6.32;;;2.70;;
50872;SDS011;72604;40.088;18.346;2024-02-26T09:23:41;6.38;;;3.08;;
50872;SDS011;72604;40.088;18.346;2024-02-26T09:27:23;7.30;;;3.22;;
50872;SDS011;72604;40.088;18.346;2024-02-26T09:31:04;5.00;;;2.88;;
50872;SDS011;72604;40.088;18.346;2024-02-26T09:34:45;4.97;;;2.22;;
50872;SDS011;72604;40.088;18.346;2024-02-26T09:38:26;6.70;;;3.00;;
50872;SDS011;72604;40.088;18.346;2024-02-26T09:42:08;7.40;;;3.10;;
50872;SDS011;72604;40.088;18.346;2024-02-26T09:45:53;5.90;;;2.53;;
50872;SDS011;72604;40.088;18.346;2024-02-26T09:49:34;7.22;;;2.67;;
50872;SDS011;72604;40.088;18.346;2024-02-26T09:53:16;4.45;;;2.60;;
50872;SDS011;72604;40.088;18.346;2024-02-26T09:56:57;5.05;;;2.53;;
50872;SDS011;72604;40.088;18.346;2024-02-26T10:00:41;7.10;;;2.90;;
50872;SDS011;72604;40.088;18.346;2024-02-26T10:04:24;4.82;;;2.33;;
50872;SDS011;72604;40.088;18.346;2024-02-26T10:08:06;7.35;;;2.55;;
50872;SDS011;72604;40.088;18.346;2024-02-26T10:11:49;5.35;;;2.30;;
50872;SDS011;72604;40.088;18.346;2024-02-26T10:15:30;6.38;;;2.75;;
50872;SDS011;72604;40.088;18.346;2024-02-26T10:19:13;5.68;;;2.45;;
50872;SDS011;72604;40.088;18.346;2024-02-26T10:23:06;5.78;;;2.80;;
50872;SDS011;72604;40.088;18.346;2024-02-26T10:26:47;7.47;;;2.70;;
50872;SDS011;72604;40.088;18.346;2024-02-26T10:30:28;6.60;;;2.75;;
50872;SDS011;72604;40.088;18.346;2024-02-26T10:34:10;6.30;;;2.63;;
50872;SDS011;72604;40.088;18.346;2024-02-26T10:37:51;5.55;;;2.50;;
50872;SDS011;72604;40.088;18.346;2024-02-26T10:41:34;7.10;;;2.70;;
50872;SDS011;72604;40.088;18.346;2024-02-26T10:45:15;5.60;;;2.30;;
50872;SDS011;72604;40.088;18.346;2024-02-26T10:48:55;6.00;;;2.50;;
50872;SDS011;72604;40.088;18.346;2024-02-26T10:52:36;5.90;;;2.97;;
50872;SDS011;72604;40.088;18.346;2024-02-26T10:56:17;7.82;;;3.22;;
50872;SDS011;72604;40.088;18.346;2024-02-26T11:00:01;4.53;;;2.60;;
50872;SDS011;72604;40.088;18.346;2024-02-26T11:03:43;4.80;;;2.75;;
50872;SDS011;72604;40.088;18.346;2024-02-26T11:07:25;5.32;;;2.58;;
50872;SDS011;72604;40.088;18.346;2024-02-26T11:11:06;5.95;;;2.45;;
50872;SDS011;72604;40.088;18.346;2024-02-26T11:14:47;6.30;;;3.03;;
50872;SDS011;72604;40.088;18.346;2024-02-26T11:18:32;6.38;;;2.90;;
50872;SDS011;72604;40.088;18.346;2024-02-26T11:22:14;4.22;;;2.38;;
50872;SDS011;72604;40.088;18.346;2024-02-26T11:25:57;4.03;;;2.22;;
50872;SDS011;72604;40.088;18.346;2024-02-26T11:29:41;5.22;;;2.35;;
50872;SDS011;72604;40.088;18.346;2024-02-26T11:33:23;3.38;;;2.30;;
50872;SDS011;72604;40.088;18.346;2024-02-26T11:37:12;5.97;;;2.72;;
50872;SDS011;72604;40.088;18.346;2024-02-26T11:40:54;6.28;;;2.67;;
50872;SDS011;72604;40.088;18.346;2024-02-26T11:44:35;5.68;;;2.65;;
50872;SDS011;72604;40.088;18.346;2024-02-26T11:48:20;6.10;;;3.20;;
50872;SDS011;72604;40.088;18.346;2024-02-26T11:52:04;5.88;;;2.80;;
50872;SDS011;72604;40.088;18.346;2024-02-26T11:55:47;4.07;;;2.85;;
50872;SDS011;72604;40.088;18.346;2024-02-26T11:59:37;5.05;;;2.53;;
50872;SDS011;72604;40.088;18.346;2024-02-26T12:03:18;4.35;;;2.30;;
50872;SDS011;72604;40.088;18.346;2024-02-26T12:07:01;4.82;;;2.72;;
50872;SDS011;72604;40.088;18.346;2024-02-26T12:10:42;4.70;;;2.15;;
50872;SDS011;72604;40.088;18.346;2024-02-26T12:14:26;3.10;;;2.10;;
50872;SDS011;72604;40.088;18.346;2024-02-26T12:18:09;5.35;;;2.75;;
50872;SDS011;72604;40.088;18.346;2024-02-26T12:21:51;5.45;;;2.85;;
50872;SDS011;72604;40.088;18.346;2024-02-26T12:25:32;3.42;;;2.30;;
50872;SDS011;72604;40.088;18.346;2024-02-26T12:29:13;4.97;;;2.33;;
50872;SDS011;72604;40.088;18.346;2024-02-26T12:32:56;4.53;;;2.22;;
50872;SDS011;72604;40.088;18.346;2024-02-26T12:36:37;4.85;;;2.72;;
50872;SDS011;72604;40.088;18.346;2024-02-26T12:40:19;4.72;;;2.30;;
50872;SDS011;72604;40.088;18.346;2024-02-26T12:44:01;3.40;;;2.00;;
50872;SDS011;72604;40.088;18.346;2024-02-26T12:47:43;6.70;;;2.60;;
50872;SDS011;72604;40.088;18.346;2024-02-26T12:51:26;4.20;;;2.35;;
50872;SDS011;72604;40.088;18.346;2024-02-26T12:55:08;4.15;;;2.08;;
50872;SDS011;72604;40.088;18.346;2024-02-26T12:58:50;4.00;;;2.47;;
50872;SDS011;72604;40.088;18.346;2024-02-26T13:02:31;4.80;;;2.60;;
50872;SDS011;72604;40.088;18.346;2024-02-26T13:06:13;4.38;;;2.08;;
50872;SDS011;72604;40.088;18.346;2024-02-26T13:09:55;6.57;;;2.78;;
50872;SDS011;72604;40.088;18.346;2024-02-26T13:13:36;4.57;;;2.30;;
50872;SDS011;72604;40.088;18.346;2024-02-26T13:17:21;4.88;;;2.40;;
50872;SDS011;72604;40.088;18.346;2024-02-26T13:21:06;2.97;;;2.00;;
50872;SDS011;72604;40.088;18.346;2024-02-26T13:24:53;5.30;;;2.10;;
50872;SDS011;72604;40.088;18.346;2024-02-26T13:28:36;4.25;;;2.22;;
50872;SDS011;72604;40.088;18.346;2024-02-26T13:32:16;5.15;;;2.53;;
50872;SDS011;72604;40.088;18.346;2024-02-26T13:35:58;3.53;;;2.17;;
50872;SDS011;72604;40.088;18.346;2024-02-26T13:39:39;6.13;;;2.15;;
50872;SDS011;72604;40.088;18.346;2024-02-26T13:43:22;4.85;;;2.10;;
50872;SDS011;72604;40.088;18.346;2024-02-26T13:47:04;3.25;;;2.15;;
50872;SDS011;72604;40.088;18.346;2024-02-26T13:50:45;6.15;;;2.35;;
50872;SDS011;72604;40.088;18.346;2024-02-26T13:54:26;2.85;;;2.00;;
50872;SDS011;72604;40.088;18.346;2024-02-26T13:58:07;5.55;;;2.00;;
50872;SDS011;72604;40.088;18.346;2024-02-26T14:01:48;4.00;;;2.08;;
50872;SDS011;72604;40.088;18.346;2024-02-26T14:05:30;3.58;;;2.05;;
50872;SDS011;72604;40.088;18.346;2024-02-26T14:09:11;3.05;;;2.10;;
50872;SDS011;72604;40.088;18.346;2024-02-26T14:12:58;4.32;;;2.08;;
50872;SDS011;72604;40.088;18.346;2024-02-26T14:16:39;6.07;;;2.63;;
50872;SDS011;72604;40.088;18.346;2024-02-26T14:20:20;3.85;;;2.33;;
50872;SDS011;72604;40.088;18.346;2024-02-26T14:24:05;6.05;;;1.90;;
50872;SDS011;72604;40.088;18.346;2024-02-26T14:27:46;3.10;;;2.08;;
50872;SDS011;72604;40.088;18.346;2024-02-26T14:31:27;5.25;;;2.20;;
50872;SDS011;72604;40.088;18.346;2024-02-26T14:35:08;2.83;;;2.20;;
50872;SDS011;72604;40.088;18.346;2024-02-26T14:38:53;3.80;;;2.38;;
50872;SDS011;72604;40.088;18.346;2024-02-26T14:42:35;4.20;;;2.35;;
50872;SDS011;72604;40.088;18.346;2024-02-26T14:46:17;5.50;;;2.50;;
50872;SDS011;72604;40.088;18.346;2024-02-26T14:49:57;4.80;;;2.22;;
50872;SDS011;72604;40.088;18.346;2024-02-26T14:53:38;3.28;;;2.40;;
50872;SDS011;72604;40.088;18.346;2024-02-26T14:57:19;3.58;;;2.40;;
50872;SDS011;72604;40.088;18.346;2024-02-26T15:01:01;6.22;;;2.88;;
50872;SDS011;72604;40.088;18.346;2024-02-26T15:04:44;3.85;;;2.80;;
50872;SDS011;72604;40.088;18.346;2024-02-26T15:08:24;3.15;;;2.50;;
50872;SDS011;72604;40.088;18.346;2024-02-26T15:12:05;4.50;;;2.58;;
50872;SDS011;72604;40.088;18.346;2024-02-26T15:15:47;4.47;;;3.50;;
50872;SDS011;72604;40.088;18.346;2024-02-26T15:19:29;6.13;;;3.63;;
50872;SDS011;72604;40.088;18.346;2024-02-26T15:23:11;3.05;;;2.47;;
50872;SDS011;72604;40.088;18.346;2024-02-26T15:26:52;5.03;;;3.55;;
50872;SDS011;72604;40.088;18.346;2024-02-26T15:30:33;5.57;;;3.05;;
50872;SDS011;72604;40.088;18.346;2024-02-26T15:34:15;3.83;;;2.78;;
50872;SDS011;72604;40.088;18.346;2024-02-26T15:37:57;6.10;;;3.88;;
50872;SDS011;72604;40.088;18.346;2024-02-26T15:41:38;5.30;;;3.53;;
50872;SDS011;72604;40.088;18.346;2024-02-26T15:45:20;5.75;;;3.40;;
50872;SDS011;72604;40.088;18.346;2024-02-26T15:49:01;5.00;;;3.08;;
50872;SDS011;72604;40.088;18.346;2024-02-26T15:52:43;6.60;;;4.30;;
50872;SDS011;72604;40.088;18.346;2024-02-26T15:56:25;6.03;;;3.88;;
50872;SDS011;72604;40.088;18.346;2024-02-26T16:00:06;6.57;;;3.95;;
50872;SDS011;72604;40.088;18.346;2024-02-26T16:03:53;6.57;;;4.40;;
50872;SDS011;72604;40.088;18.346;2024-02-26T16:07:37;8.35;;;4.60;;
50872;SDS011;72604;40.088;18.346;2024-02-26T16:11:19;8.82;;;5.13;;
50872;SDS011;72604;40.088;18.346;2024-02-26T16:15:02;8.65;;;5.43;;
50872;SDS011;72604;40.088;18.346;2024-02-26T16:18:44;8.25;;;6.07;;
50872;SDS011;72604;40.088;18.346;2024-02-26T16:22:25;19.38;;;15.05;;
50872;SDS011;72604;40.088;18.346;2024-02-26T16:26:06;29.00;;;22.30;;
50872;SDS011;72604;40.088;18.346;2024-02-26T16:29:47;36.33;;;27.75;;
50872;SDS011;72604;40.088;18.346;2024-02-26T16:33:30;21.20;;;18.63;;
50872;SDS011;72604;40.088;18.346;2024-02-26T16:37:11;10.38;;;8.40;;
50872;SDS011;72604;40.088;18.346;2024-02-26T16:40:52;12.90;;;11.38;;
50872;SDS011;72604;40.088;18.346;2024-02-26T16:44:33;12.95;;;11.30;;
50872;SDS011;72604;40.088;18.346;2024-02-26T16:48:14;10.98;;;7.55;;
50872;SDS011;72604;40.088;18.346;2024-02-26T16:51:56;9.50;;;6.43;;
50872;SDS011;72604;40.088;18.346;2024-02-26T16:55:37;10.45;;;8.52;;
50872;SDS011;72604;40.088;18.346;2024-02-26T16:59:18;12.90;;;8.52;;
50872;SDS011;72604;40.088;18.346;2024-02-26T17:02:59;7.45;;;6.65;;
50872;SDS011;72604;40.088;18.346;2024-02-26T17:06:41;14.25;;;8.60;;
50872;SDS011;72604;40.088;18.346;2024-02-26T17:10:23;11.48;;;8.48;;
50872;SDS011;72604;40.088;18.346;2024-02-26T17:14:04;24.73;;;20.73;;
50872;SDS011;72604;40.088;18.346;2024-02-26T17:17:45;17.75;;;13.95;;
50872;SDS011;72604;40.088;18.346;2024-02-26T17:21:26;16.00;;;12.70;;
50872;SDS011;72604;40.088;18.346;2024-02-26T17:25:07;10.82;;;8.50;;
50872;SDS011;72604;40.088;18.346;2024-02-26T17:28:51;18.95;;;17.05;;
50872;SDS011;72604;40.088;18.346;2024-02-26T17:32:32;24.52;;;20.65;;
50872;SDS011;72604;40.088;18.346;2024-02-26T17:36:13;23.52;;;20.00;;
50872;SDS011;72604;40.088;18.346;2024-02-26T17:39:54;18.90;;;16.83;;
50872;SDS011;72604;40.088;18.346;2024-02-26T17:43:35;27.15;;;24.23;;
50872;SDS011;72604;40.088;18.346;2024-02-26T17:47:17;26.17;;;19.08;;
50872;SDS011;72604;40.088;18.346;2024-02-26T17:50:58;23.08;;;15.48;;
50872;SDS011;72604;40.088;18.346;2024-02-26T17:54:38;17.83;;;12.57;;
50872;SDS011;72604;40.088;18.346;2024-02-26T17:58:19;14.13;;;9.27;;
50872;SDS011;72604;40.088;18.346;2024-02-26T18:02:00;16.08;;;11.35;;
50872;SDS011;72604;40.088;18.346;2024-02-26T18:05:44;14.48;;;10.00;;
50872;SDS011;72604;40.088;18.346;2024-02-26T18:09:24;21.23;;;13.70;;
50872;SDS011;72604;40.088;18.346;2024-02-26T18:13:06;18.27;;;14.63;;
50872;SDS011;72604;40.088;18.346;2024-02-26T18:16:47;16.67;;;13.73;;
50872;SDS011;72604;40.088;18.346;2024-02-26T18:20:28;19.80;;;15.82;;
50872;SDS011;72604;40.088;18.346;2024-02-26T18:24:10;22.02;;;17.17;;
50872;SDS011;72604;40.088;18.346;2024-02-26T18:27:52;21.42;;;17.40;;
50872;SDS011;72604;40.088;18.346;2024-02-26T18:31:33;20.85;;;18.17;;
50872;SDS011;72604;40.088;18.346;2024-02-26T18:35:13;27.23;;;20.48;;
50872;SDS011;72604;40.088;18.346;2024-02-26T18:38:54;26.58;;;20.00;;
50872;SDS011;72604;40.088;18.346;2024-02-26T18:42:38;25.10;;;21.05;;
50872;SDS011;72604;40.088;18.346;2024-02-26T18:46:19;25.23;;;21.98;;
50872;SDS011;72604;40.088;18.346;2024-02-26T18:50:01;21.40;;;17.60;;
50872;SDS011;72604;40.088;18.346;2024-02-26T18:53:42;57.80;;;45.60;;
50872;SDS011;72604;40.088;18.346;2024-02-26T18:57:24;56.00;;;45.13;;
50872;SDS011;72604;40.088;18.346;2024-02-26T19:01:09;23.65;;;18.90;;
50872;SDS011;72604;40.088;18.346;2024-02-26T19:04:50;21.63;;;16.02;;
50872;SDS011;72604;40.088;18.346;2024-02-26T19:08:30;19.13;;;14.15;;
50872;SDS011;72604;40.088;18.346;2024-02-26T19:12:11;25.63;;;20.85;;
50872;SDS011;72604;40.088;18.346;2024-02-26T19:15:53;26.23;;;21.27;;
50872;SDS011;72604;40.088;18.346;2024-02-26T19:19:35;22.40;;;18.92;;
50872;SDS011;72604;40.088;18.346;2024-02-26T19:23:17;27.75;;;20.23;;
50872;SDS011;72604;40.088;18.346;2024-02-26T19:26:58;22.33;;;19.88;;
50872;SDS011;72604;40.088;18.346;2024-02-26T19:30:39;21.08;;;18.00;;
50872;SDS011;72604;40.088;18.346;2024-02-26T19:34:20;19.08;;;16.55;;
50872;SDS011;72604;40.088;18.346;2024-02-26T19:38:03;21.23;;;16.88;;
50872;SDS011;72604;40.088;18.346;2024-02-26T19:41:44;22.38;;;19.70;;
50872;SDS011;72604;40.088;18.346;2024-02-26T19:45:25;26.40;;;20.83;;
50872;SDS011;72604;40.088;18.346;2024-02-26T19:49:06;30.83;;;25.27;;
50872;SDS011;72604;40.088;18.346;2024-02-26T19:52:47;26.13;;;21.08;;
50872;SDS011;72604;40.088;18.346;2024-02-26T19:56:32;21.75;;;17.52;;
50872;SDS011;72604;40.088;18.346;2024-02-26T20:00:14;25.85;;;18.55;;
50872;SDS011;72604;40.088;18.346;2024-02-26T20:03:55;25.27;;;20.35;;
50872;SDS011;72604;40.088;18.346;2024-02-26T20:07:37;37.20;;;28.15;;
50872;SDS011;72604;40.088;18.346;2024-02-26T20:11:18;31.33;;;25.90;;
50872;SDS011;72604;40.088;18.346;2024-02-26T20:15:00;61.97;;;43.20;;
50872;SDS011;72604;40.088;18.346;2024-02-26T20:18:41;70.70;;;52.58;;
50872;SDS011;72604;40.088;18.346;2024-02-26T20:22:22;77.50;;;63.67;;
50872;SDS011;72604;40.088;18.346;2024-02-26T20:26:03;68.47;;;53.63;;
50872;SDS011;72604;40.088;18.346;2024-02-26T20:29:44;54.35;;;44.92;;
50872;SDS011;72604;40.088;18.346;2024-02-26T20:33:27;81.43;;;69.68;;
50872;SDS011;72604;40.088;18.346;2024-02-26T20:37:08;88.68;;;63.78;;
50872;SDS011;72604;40.088;18.346;2024-02-26T20:40:49;66.30;;;55.28;;
50872;SDS011;72604;40.088;18.346;2024-02-26T20:44:30;48.05;;;40.05;;
50872;SDS011;72604;40.088;18.346;2024-02-26T20:48:11;51.30;;;41.10;;
50872;SDS011;72604;40.088;18.346;2024-02-26T20:51:53;47.13;;;39.38;;
50872;SDS011;72604;40.088;18.346;2024-02-26T20:55:36;50.97;;;43.47;;
50872;SDS011;72604;40.088;18.346;2024-02-26T20:59:17;59.20;;;51.22;;
50872;SDS011;72604;40.088;18.346;2024-02-26T21:02:58;56.08;;;49.92;;
50872;SDS011;72604;40.088;18.346;2024-02-26T21:06:41;40.92;;;34.20;;
50872;SDS011;72604;40.088;18.346;2024-02-26T21:10:24;39.13;;;32.63;;
50872;SDS011;72604;40.088;18.346;2024-02-26T21:14:09;23.53;;;21.03;;
50872;SDS011;72604;40.088;18.346;2024-02-26T21:17:50;35.92;;;27.73;;
50872;SDS011;72604;40.088;18.346;2024-02-26T21:21:31;44.28;;;35.35;;
50872;SDS011;72604;40.088;18.346;2024-02-26T21:25:13;32.85;;;26.77;;
50872;SDS011;72604;40.088;18.346;2024-02-26T21:28:55;38.88;;;34.67;;
50872;SDS011;72604;40.088;18.346;2024-02-26T21:32:36;30.83;;;25.27;;
50872;SDS011;72604;40.088;18.346;2024-02-26T21:36:21;24.95;;;21.48;;
50872;SDS011;72604;40.088;18.346;2024-02-26T21:40:03;29.58;;;24.13;;